createdAt,value
2019-05-17T00:02:11.927Z,97713.05
2019-05-17T00:04:42.607Z,97713.52
2019-05-17T00:07:13.539Z,97707.94
2019-05-17T00:09:45.043Z,97703.11
2019-05-17T00:12:16.676Z,97704.79
2019-05-17T00:14:48.034Z,97692.50
2019-05-17T00:17:19.104Z,97690.67
2019-05-17T00:19:50.490Z,97686.88
2019-05-17T00:22:23.204Z,97686.70
2019-05-17T00:24:56.844Z,97678.61
2019-05-17T00:27:27.671Z,97679.25
2019-05-17T00:29:58.575Z,97676.91
2019-05-17T00:32:29.574Z,97673.55
2019-05-17T00:35:04.101Z,97673.23
2019-05-17T00:37:37.361Z,97666.52
2019-05-17T00:40:08.676Z,97665.65
2019-05-17T00:42:39.736Z,97667.13
2019-05-17T00:45:11.060Z,97658.96
2019-05-17T00:47:42.134Z,97659.52
2019-05-17T00:50:13.246Z,97658.02
2019-05-17T00:52:44.494Z,97656.37
2019-05-17T00:55:17.699Z,97653.24
2019-05-17T00:57:48.466Z,97651.71
2019-05-17T01:00:23.173Z,97659.05
2019-05-17T01:02:57.205Z,97643.42
2019-05-17T01:05:29.776Z,97646.07
2019-05-17T01:08:01.399Z,97638.29
2019-05-17T01:10:32.560Z,97645.69
2019-05-17T01:13:03.548Z,97641.56
2019-05-17T01:15:36.834Z,97638.51
2019-05-17T01:18:07.542Z,97644.33
2019-05-17T01:20:38.918Z,97641.36
2019-05-17T01:23:10.809Z,97637.19
2019-05-17T01:25:43.587Z,97641.84
2019-05-17T01:28:16.403Z,97634.93
2019-05-17T01:30:47.747Z,97633.44
2019-05-17T01:33:18.847Z,97628.65
2019-05-17T01:35:49.609Z,97632.47
2019-05-17T01:38:20.630Z,97630.66
2019-05-17T01:40:52.006Z,97633.52
2019-05-17T01:43:23.047Z,97624.98
2019-05-17T01:45:57.450Z,97629.48
2019-05-17T01:48:28.427Z,97627.37
2019-05-17T01:51:01.706Z,97628.30
2019-05-17T01:53:32.302Z,97624.05
2019-05-17T01:56:03.580Z,97625.44
2019-05-17T01:58:36.532Z,97629.97
2019-05-17T02:01:08.019Z,97626.46
2019-05-17T02:03:39.153Z,97633.52
2019-05-17T02:06:09.823Z,97622.47
2019-05-17T02:08:41.424Z,97624.38
2019-05-17T02:11:13.711Z,97626.20
2019-05-17T02:13:46.655Z,97623.17
2019-05-17T02:16:17.122Z,97623.86
2019-05-17T02:18:48.156Z,97624.67
2019-05-17T02:21:18.819Z,97619.21
2019-05-17T02:23:49.657Z,97618.52
2019-05-17T02:26:21.077Z,97618.37
2019-05-17T02:28:53.651Z,97616.56
2019-05-17T02:31:25.006Z,97616.50
2019-05-17T02:33:56.151Z,97614.43
2019-05-17T02:36:27.153Z,97616.14
2019-05-17T02:38:59.928Z,97612.91
2019-05-17T02:41:33.290Z,97617.26
2019-05-17T02:44:04.413Z,97616.14
2019-05-17T02:46:35.459Z,97611.67
2019-05-17T02:49:06.148Z,97617.83
2019-05-17T02:51:38.217Z,97622.09
2019-05-17T02:54:13.220Z,97618.58
2019-05-17T02:56:43.899Z,97621.34
2019-05-17T02:59:14.962Z,97613.35
2019-05-17T03:01:45.681Z,97617.73
2019-05-17T03:04:16.344Z,97615.87
2019-05-17T03:06:47.327Z,97613.95
2019-05-17T03:09:18.636Z,97614.28
2019-05-17T03:11:53.839Z,97613.35
2019-05-17T03:14:24.109Z,97611.01
2019-05-17T03:16:54.749Z,97608.81
2019-05-17T03:19:26.235Z,97606.14
2019-05-17T03:21:57.629Z,97606.59
2019-05-17T03:24:28.911Z,97607.18
2019-05-17T03:27:02.900Z,97609.59
2019-05-17T03:29:33.659Z,97609.67
2019-05-17T03:33:26.673Z,97608.09
2019-05-17T03:44:43.817Z,97614.38
2019-05-17T03:48:43.296Z,97610.41
2019-05-17T03:54:32.419Z,97618.64
2019-05-17T03:57:04.101Z,97619.51
2019-05-17T03:59:35.027Z,97615.84
2019-05-17T04:02:06.396Z,97613.14
2019-05-17T04:04:37.117Z,97610.47
2019-05-17T04:07:07.806Z,97615.78
2019-05-17T04:09:38.672Z,97617.47
2019-05-17T04:12:09.685Z,97614.38
2019-05-17T04:14:42.974Z,97614.88
2019-05-17T04:17:13.956Z,97616.89
2019-05-17T04:19:44.983Z,97615.39
2019-05-17T04:22:16.018Z,97611.05
2019-05-17T04:24:52.520Z,97618.06
2019-05-17T04:27:23.100Z,97614.08
2019-05-17T04:29:54.308Z,97615.73
2019-05-17T04:32:25.079Z,97619.06
2019-05-17T04:34:55.746Z,97615.87
2019-05-17T04:37:27.083Z,97614.67
2019-05-17T04:39:57.864Z,97612.66
2019-05-17T04:42:29.386Z,97619.27
2019-05-17T04:45:03.330Z,97617.94
2019-05-17T04:47:33.431Z,97617.73
2019-05-17T04:50:04.848Z,97617.11
2019-05-17T04:52:36.207Z,97614.83
2019-05-17T04:55:07.861Z,97619.51
2019-05-17T04:57:38.577Z,97619.53
2019-05-17T05:00:12.945Z,97620.41
2019-05-17T05:02:44.004Z,97616.77
2019-05-17T05:05:15.834Z,97624.55
2019-05-17T05:07:47.320Z,97623.23
2019-05-17T05:10:18.343Z,97623.11
2019-05-17T05:12:52.209Z,97614.11
2019-05-17T05:15:43.329Z,97621.61
2019-05-17T05:18:13.888Z,97622.85
2019-05-17T05:20:44.694Z,97622.53
2019-05-17T05:23:16.013Z,97620.64
2019-05-17T05:25:47.998Z,97614.95
2019-05-17T05:28:18.903Z,97609.54
2019-05-17T05:30:52.567Z,97619.48
2019-05-17T05:33:28.378Z,97614.25
2019-05-17T05:35:59.031Z,97620.73
2019-05-17T05:38:31.961Z,97618.78
2019-05-17T05:41:03.121Z,97612.05
2019-05-17T05:43:34.175Z,97613.69
2019-05-17T05:46:05.190Z,97616.02
2019-05-17T05:48:36.268Z,97623.36
2019-05-17T05:51:07.567Z,97619.77
2019-05-17T05:53:38.597Z,97619.64
2019-05-17T05:56:09.663Z,97622.93
2019-05-17T05:58:42.680Z,97623.94
2019-05-17T06:01:14.348Z,97622.50
2019-05-17T06:03:45.339Z,97619.75
2019-05-17T06:06:16.579Z,97625.67
2019-05-17T06:08:47.858Z,97621.56
2019-05-17T06:11:18.650Z,97629.48
2019-05-17T06:13:49.586Z,97627.37
2019-05-17T06:16:22.566Z,97620.77
2019-05-17T06:18:53.015Z,97622.39
2019-05-17T06:21:24.235Z,97613.27
2019-05-17T06:23:56.387Z,97614.91
2019-05-17T06:26:27.317Z,97614.09
2019-05-17T06:28:58.315Z,97612.73
2019-05-17T06:31:29.306Z,97618.83
2019-05-17T06:34:01.920Z,97614.11
2019-05-17T06:36:33.034Z,97620.39
2019-05-17T06:39:06.465Z,97618.41
2019-05-17T06:41:37.148Z,97620.70
2019-05-17T06:44:07.876Z,97612.24
2019-05-17T06:46:38.556Z,97618.27
2019-05-17T06:49:11.573Z,97610.22
2019-05-17T06:51:42.696Z,97612.20
2019-05-17T06:54:13.746Z,97607.53
2019-05-17T06:56:45.172Z,97601.27
2019-05-17T06:59:15.952Z,97603.26
2019-05-17T07:01:47.033Z,97602.14
2019-05-17T07:04:19.409Z,97598.90
2019-05-17T07:07:10.852Z,97596.12
2019-05-17T07:09:42.410Z,97593.86
2019-05-17T07:12:14.168Z,97602.09
2019-05-17T07:14:45.221Z,97587.92
2019-05-17T07:17:16.563Z,97589.73
2019-05-17T07:19:50.585Z,97582.33
2019-05-17T07:22:21.282Z,97581.80
2019-05-17T07:24:52.259Z,97580.92
2019-05-17T07:27:37.585Z,97572.67
2019-05-17T07:29:56.075Z,97573.77
2019-05-17T07:32:29.609Z,97574.52
2019-05-17T07:35:00.247Z,97570.30
2019-05-17T07:37:31.426Z,97570.87
2019-05-17T07:40:05.179Z,97564.44
2019-05-17T07:42:36.187Z,97565.20
2019-05-17T07:45:10.119Z,97564.70
2019-05-17T07:47:41.272Z,97559.59
2019-05-17T07:50:14.200Z,97553.52
2019-05-17T07:52:45.117Z,97551.95
2019-05-17T07:55:16.061Z,97547.30
2019-05-17T07:57:49.601Z,97534.48
2019-05-17T08:00:21.387Z,97539.91
2019-05-17T08:02:52.957Z,97538.17
2019-05-17T08:05:24.580Z,97534.75
2019-05-17T08:07:55.488Z,97530.30
2019-05-17T08:10:29.654Z,97530.13
2019-05-17T08:13:00.000Z,97517.34
2019-05-17T08:15:30.605Z,97519.50
2019-05-17T08:18:02.016Z,97509.02
2019-05-17T08:20:33.476Z,97513.59
2019-05-17T08:23:05.309Z,97520.31
2019-05-17T08:25:49.613Z,97510.47
2019-05-17T08:28:10.970Z,97506.34
2019-05-17T08:30:41.633Z,97500.92
2019-05-17T08:33:13.125Z,97496.95
2019-05-17T08:35:44.000Z,97501.41
2019-05-17T08:38:14.928Z,97492.33
2019-05-17T08:40:47.121Z,97498.91
2019-05-17T08:43:18.031Z,97492.41
2019-05-17T08:45:50.161Z,97483.60
2019-05-17T08:48:21.228Z,97480.41
2019-05-17T08:50:53.622Z,97481.77
2019-05-17T08:53:24.984Z,97482.52
2019-05-17T08:55:56.798Z,97479.13
2019-05-17T08:58:29.731Z,97477.83
2019-05-17T09:01:01.343Z,97478.34
2019-05-17T09:03:32.014Z,97469.90
2019-05-17T09:06:03.031Z,97475.22
2019-05-17T09:08:34.102Z,97472.51
2019-05-17T09:11:05.043Z,97474.34
2019-05-17T09:13:35.745Z,97468.92
2019-05-17T09:16:06.717Z,97469.91
2019-05-17T09:18:39.349Z,97473.06
2019-05-17T09:21:10.763Z,97467.98
2019-05-17T09:23:41.770Z,97453.79
2019-05-17T09:26:13.051Z,97453.75
2019-05-17T09:28:44.011Z,97455.76
2019-05-17T09:31:15.868Z,97453.57
2019-05-17T09:33:46.546Z,97463.40
2019-05-17T09:36:17.299Z,97453.06
2019-05-17T09:38:49.471Z,97448.11
2019-05-17T09:41:20.688Z,97445.36
2019-05-17T09:43:52.253Z,97442.16
2019-05-17T09:46:23.303Z,97444.34
2019-05-17T09:48:54.934Z,97438.48
2019-05-17T09:51:26.488Z,97439.23
2019-05-17T09:53:59.901Z,97439.10
2019-05-17T09:56:30.305Z,97446.52
2019-05-17T09:59:01.034Z,97437.91
2019-05-17T10:01:32.397Z,97433.30
2019-05-17T10:04:03.776Z,97436.78
2019-05-17T10:08:16.370Z,97429.34
2019-05-17T10:11:04.272Z,97432.05
2019-05-17T10:13:24.348Z,97423.19
2019-05-17T10:15:57.361Z,97426.75
2019-05-17T10:18:30.144Z,97421.11
2019-05-17T10:21:04.434Z,97422.36
2019-05-17T10:23:37.022Z,97414.92
2019-05-17T10:26:10.297Z,97416.12
2019-05-17T10:28:45.644Z,97411.48
2019-05-17T10:31:19.727Z,97412.47
2019-05-17T10:33:52.110Z,97414.38
2019-05-17T10:36:26.481Z,97416.23
2019-05-17T10:38:59.273Z,97414.99
2019-05-17T10:41:31.418Z,97411.02
2019-05-17T10:44:04.476Z,97406.34
2019-05-17T10:46:40.465Z,97399.41
2019-05-17T10:49:12.531Z,97397.33
2019-05-17T10:51:49.392Z,97394.52
2019-05-17T10:54:22.006Z,97392.06
2019-05-17T10:56:54.862Z,97391.33
2019-05-17T10:59:27.551Z,97391.47
2019-05-17T11:01:59.654Z,97391.00
2019-05-17T11:04:32.787Z,97389.86
2019-05-17T11:07:06.849Z,97379.10
2019-05-17T11:09:40.438Z,97380.78
2019-05-17T11:12:13.015Z,97376.97
2019-05-17T11:14:55.880Z,97365.84
2019-05-17T11:17:19.408Z,97372.69
2019-05-17T11:19:51.972Z,97377.87
2019-05-17T11:22:24.500Z,97365.00
2019-05-17T11:24:59.734Z,97365.67
2019-05-17T11:27:32.655Z,97374.18
2019-05-17T11:30:06.037Z,97367.36
2019-05-17T11:32:38.979Z,97362.33
2019-05-17T11:35:11.498Z,97362.34
2019-05-17T11:37:43.820Z,97362.88
2019-05-17T11:40:17.741Z,97363.89
2019-05-17T11:42:50.231Z,97364.63
2019-05-17T11:45:27.925Z,97357.42
2019-05-17T11:47:57.730Z,97360.48
2019-05-17T11:50:31.088Z,97360.03
2019-05-17T11:53:03.747Z,97369.52
2019-05-17T11:55:36.291Z,97364.41
2019-05-17T11:58:09.403Z,97355.14
2019-05-17T12:00:41.914Z,97347.06
2019-05-17T12:03:13.580Z,97341.26
2019-05-17T12:05:45.845Z,97340.37
2019-05-17T12:08:17.946Z,97344.06
2019-05-17T12:10:48.829Z,97343.65
2019-05-17T12:13:21.742Z,97334.31
2019-05-17T12:15:53.905Z,97323.91
2019-05-17T12:18:24.715Z,97321.89
2019-05-17T12:20:56.982Z,97320.67
2019-05-17T12:23:29.397Z,97316.84
2019-05-17T12:26:01.344Z,97323.77
2019-05-17T12:28:34.707Z,97330.41
2019-05-17T12:31:07.398Z,97326.09
2019-05-17T12:33:39.218Z,97322.62
2019-05-17T12:36:11.626Z,97317.78
2019-05-17T12:38:48.810Z,97309.19
2019-05-17T12:41:20.942Z,97307.95
2019-05-17T12:43:51.706Z,97301.23
2019-05-17T12:46:23.644Z,97303.03
2019-05-17T12:48:55.125Z,97294.11
2019-05-17T12:51:28.268Z,97287.22
2019-05-17T12:54:00.417Z,97288.85
2019-05-17T12:56:32.503Z,97279.27
2019-05-17T12:59:03.623Z,97289.33
2019-05-17T13:01:35.747Z,97295.72
2019-05-17T13:04:09.163Z,97290.74
2019-05-17T13:06:41.575Z,97271.16
2019-05-17T13:09:13.598Z,97273.09
2019-05-17T13:11:44.842Z,97273.08
2019-05-17T13:14:18.161Z,97273.48
2019-05-17T13:16:50.311Z,97271.95
2019-05-17T13:19:25.220Z,97279.80
2019-05-17T13:21:57.401Z,97268.45
2019-05-17T13:24:30.180Z,97276.87
2019-05-17T13:27:03.087Z,97263.19
2019-05-17T13:29:35.168Z,97254.33
2019-05-17T13:32:07.982Z,97254.41
2019-05-17T13:34:40.298Z,97258.31
2019-05-17T13:37:12.025Z,97256.00
2019-05-17T13:39:45.009Z,97261.05
2019-05-17T13:42:16.730Z,97254.52
2019-05-17T13:44:49.440Z,97248.90
2019-05-17T13:47:21.307Z,97251.68
2019-05-17T13:49:53.682Z,97244.50
2019-05-17T13:52:25.480Z,97247.81
2019-05-17T13:54:59.244Z,97240.94
2019-05-17T13:57:31.688Z,97240.91
2019-05-17T14:00:05.021Z,97237.64
2019-05-17T14:02:37.800Z,97226.45
2019-05-17T14:05:11.592Z,97227.53
2019-05-17T14:07:44.303Z,97225.09
2019-05-17T14:10:27.630Z,97228.98
2019-05-17T14:12:53.106Z,97230.13
2019-05-17T14:15:26.580Z,97229.69
2019-05-17T14:17:59.066Z,97221.34
2019-05-17T14:20:31.446Z,97225.30
2019-05-17T14:23:06.221Z,97232.66
2019-05-17T14:25:38.937Z,97224.59
2019-05-17T14:28:11.540Z,97225.81
2019-05-17T14:30:43.987Z,97232.02
2019-05-17T14:33:16.510Z,97234.55
2019-05-17T14:35:48.355Z,97223.20
2019-05-17T14:38:19.606Z,97222.58
2019-05-17T14:41:08.761Z,97227.46
2019-05-17T14:43:27.342Z,97231.27
2019-05-17T14:45:59.403Z,97214.71
2019-05-17T14:48:31.470Z,97221.97
2019-05-17T14:51:04.023Z,97227.17
2019-05-17T14:53:36.150Z,97212.95
2019-05-17T14:56:07.952Z,97214.30
2019-05-17T14:58:38.914Z,97217.41
2019-05-17T15:01:13.030Z,97217.36
2019-05-17T15:03:45.491Z,97211.37
2019-05-17T15:06:18.510Z,97199.00
2019-05-17T15:08:55.258Z,97211.60
2019-05-17T15:11:27.520Z,97202.64
2019-05-17T15:14:00.006Z,97200.94
2019-05-17T15:16:32.357Z,97197.79
2019-05-17T15:19:04.596Z,97203.81
2019-05-17T15:21:36.747Z,97207.28
2019-05-17T15:24:09.814Z,97199.74
2019-05-17T15:26:42.219Z,97200.70
2019-05-17T15:29:14.497Z,97190.06
2019-05-17T15:31:51.888Z,97189.50
2019-05-17T15:34:22.455Z,97190.81
2019-05-17T15:36:54.613Z,97186.75
2019-05-17T15:39:26.449Z,97187.38
2019-05-17T15:41:57.992Z,97192.69
2019-05-17T15:44:30.722Z,97188.55
2019-05-17T15:47:02.639Z,97177.17
2019-05-17T15:49:33.736Z,97169.86
2019-05-17T15:52:05.863Z,97169.50
2019-05-17T15:54:39.575Z,97166.71
2019-05-17T15:57:12.295Z,97168.48
2019-05-17T15:59:44.840Z,97161.88
2019-05-17T16:02:17.000Z,97166.01
2019-05-17T16:04:50.063Z,97162.14
2019-05-17T16:07:23.815Z,97158.05
2019-05-17T16:09:56.993Z,97151.98
2019-05-17T16:12:29.323Z,97158.48
2019-05-17T16:15:02.420Z,97154.48
2019-05-17T16:17:34.710Z,97154.36
2019-05-17T16:20:06.927Z,97161.64
2019-05-17T16:22:40.131Z,97161.22
2019-05-17T16:25:12.975Z,97157.59
2019-05-17T16:27:45.657Z,97155.66
2019-05-17T16:30:18.586Z,97160.49
2019-05-17T16:32:51.590Z,97158.00
2019-05-17T16:35:26.354Z,97153.34
2019-05-17T16:37:58.053Z,97149.78
2019-05-17T16:40:30.168Z,97153.44
2019-05-17T16:43:16.775Z,97148.63
2019-05-17T16:45:37.958Z,97149.59
2019-05-17T16:48:11.051Z,97155.81
2019-05-17T16:50:43.542Z,97151.35
2019-05-17T16:53:18.304Z,97145.92
2019-05-17T16:55:50.914Z,97151.38
2019-05-17T16:58:23.648Z,97153.42
2019-05-17T17:00:57.362Z,97149.41
2019-05-17T17:03:43.957Z,97152.99
2019-05-17T17:06:04.594Z,97154.86
2019-05-17T17:08:41.132Z,97155.41
2019-05-17T17:11:13.695Z,97155.44
2019-05-17T17:13:45.842Z,97157.84
2019-05-17T17:16:18.294Z,97156.23
2019-05-17T17:18:50.489Z,97157.60
2019-05-17T17:21:21.820Z,97159.55
2019-05-17T17:23:54.319Z,97155.47
2019-05-17T17:26:27.818Z,97156.08
2019-05-17T17:29:02.826Z,97160.27
2019-05-17T17:31:42.763Z,97159.84
2019-05-17T17:34:15.985Z,97161.94
2019-05-17T17:36:49.267Z,97158.36
2019-05-17T17:39:22.791Z,97156.41
2019-05-17T17:41:55.577Z,97152.66
2019-05-17T17:44:30.367Z,97155.73
2019-05-17T17:47:02.791Z,97166.57
2019-05-17T17:49:33.918Z,97154.84
2019-05-17T17:52:05.672Z,97162.00
2019-05-17T17:54:38.893Z,97164.78
2019-05-17T17:57:11.082Z,97155.52
2019-05-17T17:59:42.901Z,97156.34
2019-05-17T18:02:15.259Z,97150.37
2019-05-17T18:04:50.808Z,97153.28
2019-05-17T18:07:23.747Z,97153.72
2019-05-17T18:09:56.710Z,97154.09
2019-05-17T18:12:29.833Z,97150.34
2019-05-17T18:15:06.272Z,97160.73
2019-05-17T18:17:39.447Z,97155.48
2019-05-17T18:20:12.326Z,97159.34
2019-05-17T18:22:43.447Z,97161.28
2019-05-17T18:25:15.136Z,97165.27
2019-05-17T18:27:47.553Z,97164.63
2019-05-17T18:30:21.459Z,97166.48
2019-05-17T18:32:53.637Z,97171.82
2019-05-17T18:35:26.846Z,97176.70
2019-05-17T18:37:59.378Z,97175.47
2019-05-17T18:40:30.434Z,97178.48
2019-05-17T18:43:03.043Z,97178.59
2019-05-17T18:45:35.128Z,97176.45
2019-05-17T18:48:08.703Z,97181.79
2019-05-17T18:50:41.449Z,97185.66
2019-05-17T18:53:16.822Z,97186.71
2019-05-17T18:55:46.564Z,97190.14
2019-05-17T18:58:19.247Z,97194.86
2019-05-17T19:00:52.527Z,97196.33
2019-05-17T19:03:24.888Z,97203.55
2019-05-17T19:05:57.569Z,97210.51
2019-05-17T19:08:30.602Z,97211.27
2019-05-17T19:11:02.659Z,97211.30
2019-05-17T19:13:35.335Z,97214.58
2019-05-17T19:16:07.613Z,97215.80
2019-05-17T19:18:40.342Z,97221.86
2019-05-17T19:21:13.681Z,97228.40
2019-05-17T19:23:46.419Z,97223.60
2019-05-17T19:26:23.353Z,97229.20
2019-05-17T19:29:03.781Z,97225.97
2019-05-17T19:31:47.310Z,97224.80
2019-05-17T19:34:20.387Z,97234.45
2019-05-17T19:36:53.190Z,97239.55
2019-05-17T19:39:25.673Z,97247.28
2019-05-17T19:41:57.749Z,97243.20
2019-05-17T19:44:33.475Z,97245.22
2019-05-17T19:47:11.053Z,97253.41
2019-05-17T19:49:45.158Z,97249.64
2019-05-17T19:52:20.347Z,97254.52
2019-05-17T19:54:53.089Z,97261.70
2019-05-17T19:57:26.068Z,97262.84
2019-05-17T19:59:57.160Z,97261.41
2019-05-17T20:02:29.895Z,97260.58
2019-05-17T20:05:03.307Z,97262.96
2019-05-17T20:11:17.356Z,97263.47
2019-05-17T20:13:49.850Z,97270.85
2019-05-17T20:16:23.040Z,97270.31
2019-05-17T20:18:55.889Z,97265.46
2019-05-17T20:21:28.278Z,97264.53
2019-05-17T20:24:03.123Z,97257.94
2019-05-17T20:26:39.757Z,97261.52
2019-05-17T20:29:15.634Z,97259.95
2019-05-17T20:31:49.866Z,97266.80
2019-05-17T20:34:22.984Z,97263.52
2019-05-17T20:36:55.081Z,97264.91
2019-05-17T20:39:28.172Z,97260.06
2019-05-17T20:42:07.643Z,97258.05
2019-05-17T20:44:40.566Z,97259.08
2019-05-17T20:47:14.870Z,97262.74
2019-05-17T20:49:49.868Z,97256.22
2019-05-17T20:52:23.521Z,97257.45
2019-05-17T20:54:57.833Z,97260.16
2019-05-17T20:57:31.201Z,97258.22
2019-05-17T21:00:03.278Z,97258.51
2019-05-17T21:02:35.438Z,97256.15
2019-05-17T21:05:08.295Z,97258.06
2019-05-17T21:07:41.074Z,97257.45
2019-05-17T21:10:14.497Z,97256.45
2019-05-17T21:12:47.315Z,97266.27
2019-05-17T21:15:19.725Z,97264.45
2019-05-17T21:17:53.136Z,97261.09
2019-05-17T21:20:25.476Z,97263.70
2019-05-17T21:22:57.872Z,97258.45
2019-05-17T21:25:31.711Z,97259.48
2019-05-17T21:28:04.670Z,97259.12
2019-05-17T21:30:37.211Z,97260.79
2019-05-17T21:33:09.479Z,97259.12
2019-05-17T21:38:47.751Z,97261.47
2019-05-17T21:41:21.606Z,97265.34
2019-05-17T21:43:54.014Z,97263.49
2019-05-17T21:46:27.046Z,97265.30
2019-05-17T21:49:00.023Z,97268.98
2019-05-17T21:51:34.275Z,97269.08
2019-05-17T21:54:08.282Z,97267.30
2019-05-17T21:56:40.411Z,97269.37
2019-05-17T21:59:12.928Z,97265.84
2019-05-17T22:01:45.245Z,97264.23
2019-05-17T22:04:18.074Z,97264.17
2019-05-17T22:06:52.324Z,97263.92
2019-05-17T22:09:25.022Z,97270.11
2019-05-17T22:12:00.584Z,97262.69
2019-05-17T22:14:33.269Z,97270.01
2019-05-17T22:17:06.463Z,97267.31
2019-05-17T22:19:38.949Z,97270.70
2019-05-17T22:22:11.208Z,97266.48
2019-05-17T22:24:43.600Z,97270.28
2019-05-17T22:27:16.548Z,97266.23
2019-05-17T22:29:49.009Z,97267.25
2019-05-17T22:32:21.992Z,97267.19
2019-05-17T22:34:54.908Z,97267.61
2019-05-17T22:37:26.370Z,97265.20
2019-05-17T22:39:58.181Z,97261.09
2019-05-17T22:42:30.316Z,97268.89
2019-05-17T22:45:02.789Z,97262.30
2019-05-17T22:47:34.804Z,97259.58
2019-05-17T22:50:07.340Z,97263.64
2019-05-17T22:52:39.820Z,97262.43
2019-05-17T22:55:12.012Z,97267.14
2019-05-17T22:57:44.493Z,97263.89
2019-05-17T23:00:17.003Z,97267.92
2019-05-17T23:02:49.403Z,97264.79
2019-05-17T23:05:26.337Z,97265.13
2019-05-17T23:07:56.695Z,97268.09
2019-05-17T23:10:31.052Z,97266.73
2019-05-17T23:13:04.147Z,97259.91
2019-05-17T23:15:55.107Z,97263.50
2019-05-17T23:18:28.156Z,97262.43
2019-05-17T23:21:01.295Z,97263.03
2019-05-17T23:23:32.433Z,97260.69
2019-05-17T23:26:05.049Z,97262.30
2019-05-17T23:28:39.074Z,97256.92
2019-05-17T23:31:11.957Z,97259.13
2019-05-17T23:33:44.027Z,97254.83
2019-05-17T23:36:17.167Z,97258.17
2019-05-17T23:38:50.634Z,97258.20
2019-05-17T23:41:23.729Z,97256.91
2019-05-17T23:43:56.742Z,97254.54
2019-05-17T23:46:29.202Z,97258.64
2019-05-17T23:49:02.046Z,97257.19
2019-05-17T23:51:34.410Z,97258.77
2019-05-17T23:54:06.574Z,97260.42
2019-05-17T23:56:38.380Z,97261.88
2019-05-17T23:59:11.840Z,97259.20
